Time;durP1;ratioP1;P1;durP2;ratioP2;P2;SDS_P1;SDS_P2;PMS_P1;PMS_P2;Temp;Humidity;BMP_temperature;BMP_pressure;BME280_temperature;BME280_humidity;BME280_pressure;Samples;Min_cycle;Max_cycle;Signal;HPM_P1;HPM_P2
2022/04/03 00:02:16;;;;;;;24.02;12.13;;;;;;;0.46;87.85;96055.81;5110155;28;20505;-78
2022/04/03 00:04:44;;;;;;;22.80;12.50;;;;;;;0.48;87.81;96056.38;5110522;28;20056;-78
2022/04/03 00:07:11;;;;;;;21.63;11.63;;;;;;;0.50;87.88;96050.75;5109989;28;20048;-77
2022/04/03 00:09:37;;;;;;;22.55;11.82;;;;;;;0.47;87.58;96052.09;5110312;28;20051;-77
2022/04/03 00:12:04;;;;;;;23.75;12.20;;;;;;;0.43;87.56;96055.53;5110444;28;20059;-78
2022/04/03 00:14:31;;;;;;;24.33;12.30;;;;;;;0.43;87.73;96050.19;5109757;28;20135;-77
2022/04/03 00:16:58;;;;;;;23.42;12.38;;;;;;;0.45;87.66;96058.75;5110846;28;20082;-77
2022/04/03 00:19:24;;;;;;;26.20;12.05;;;;;;;0.43;87.73;96055.53;5109255;28;20058;-78
2022/04/03 00:21:52;;;;;;;26.33;12.70;;;;;;;0.37;87.33;96056.59;5110644;28;20050;-78
2022/04/03 00:24:18;;;;;;;25.45;13.00;;;;;;;0.28;87.49;96053.59;5109601;28;20051;-78
2022/04/03 00:26:45;;;;;;;26.77;14.68;;;;;;;0.29;87.59;96052.50;5110275;28;20044;-77
2022/04/03 00:29:11;;;;;;;28.63;15.13;;;;;;;0.25;87.66;96060.25;5109637;28;20055;-77
2022/04/03 00:31:38;;;;;;;27.33;14.88;;;;;;;0.22;87.77;96055.44;5109724;28;20050;-77
2022/04/03 00:34:04;;;;;;;27.90;14.10;;;;;;;0.18;87.76;96054.34;5109948;28;20051;-77
2022/04/03 00:36:31;;;;;;;24.77;13.02;;;;;;;0.19;87.80;96063.97;5109325;28;20539;-77
2022/04/03 00:38:58;;;;;;;24.38;13.30;;;;;;;0.23;87.60;96062.41;5110641;28;20055;-77
2022/04/03 00:41:25;;;;;;;27.67;13.75;;;;;;;0.21;87.72;96059.19;5108676;28;20482;-77
2022/04/03 00:43:52;;;;;;;23.52;13.60;;;;;;;0.23;87.93;96059.72;5110355;28;20048;-77
2022/04/03 00:46:21;;;;;;;23.05;13.05;;;;;;;0.27;87.97;96061.88;5109121;28;20050;-77
2022/04/03 00:48:48;;;;;;;30.08;14.63;;;;;;;0.30;88.02;96064.03;5109769;28;20051;-77
2022/04/03 00:51:15;;;;;;;24.17;14.02;;;;;;;0.30;87.84;96064.03;5108812;28;20047;-77
2022/04/03 00:53:42;;;;;;;31.33;15.30;;;;;;;0.28;87.90;96058.13;5109552;28;20048;-77
2022/04/03 00:56:10;;;;;;;26.75;14.05;;;;;;;0.29;87.96;96065.09;5109431;28;20599;-77
2022/04/03 00:58:38;;;;;;;27.02;14.15;;;;;;;0.31;87.96;96055.72;5109312;28;20086;-77
2022/04/03 01:01:05;;;;;;;24.33;14.63;;;;;;;0.29;87.71;96065.91;5109047;28;20055;-77
2022/04/03 01:03:31;;;;;;;27.30;15.10;;;;;;;0.31;87.75;96062.97;5109054;28;20055;-77
2022/04/03 01:05:58;;;;;;;27.52;14.38;;;;;;;0.28;87.59;96058.13;5110093;28;20043;-77
2022/04/03 01:08:25;;;;;;;28.40;15.80;;;;;;;0.23;87.89;96056.25;5108374;28;20048;-78
2022/04/03 01:10:51;;;;;;;31.73;16.35;;;;;;;0.23;88.02;96056.25;5109028;28;20050;-77
2022/04/03 01:13:21;;;;;;;31.08;15.73;;;;;;;0.20;88.40;96068.25;5107923;28;20046;-77
2022/04/03 01:15:51;;;;;;;28.13;15.43;;;;;;;0.22;88.44;96057.31;5109437;28;20505;-77
2022/04/03 01:18:17;;;;;;;30.00;15.82;;;;;;;0.16;88.64;96061.84;5108901;28;20417;-77
2022/04/03 01:20:44;;;;;;;31.60;17.08;;;;;;;0.18;88.84;96059.69;5108792;28;20799;-77
2022/04/03 01:23:10;;;;;;;26.20;15.52;;;;;;;0.11;89.13;96052.97;5109310;28;20051;-76
2022/04/03 01:25:38;;;;;;;28.83;17.63;;;;;;;0.10;89.16;96057.47;5108164;28;20051;-78
2022/04/03 01:28:05;;;;;;;31.20;16.90;;;;;;;0.03;89.47;96064.94;5109047;28;20050;-77
2022/04/03 01:30:32;;;;;;;33.03;16.58;;;;;;;0.04;89.33;96066.56;5108188;28;20052;-77
2022/04/03 01:32:58;;;;;;;32.28;16.67;;;;;;;0.06;89.34;96063.66;5109409;28;20040;-77
2022/04/03 01:35:25;;;;;;;29.70;16.40;;;;;;;0.02;89.30;96066.00;5108454;28;20055;-77
2022/04/03 01:37:51;;;;;;;36.20;16.92;;;;;;;-0.04;89.54;96067.84;5108907;28;20055;-77
2022/04/03 01:40:18;;;;;;;31.85;16.42;;;;;;;0.03;89.67;96056.91;5108124;28;20051;-77
2022/04/03 01:42:46;;;;;;;35.40;18.40;;;;;;;-0.04;89.63;96067.06;5108335;28;20780;-77
2022/04/03 01:45:13;;;;;;;34.47;17.67;;;;;;;-0.09;89.86;96067.03;5108616;28;20054;-76
2022/04/03 01:47:39;;;;;;;36.00;16.88;;;;;;;-0.08;89.98;96060.59;5108312;28;20051;-77
2022/04/03 01:50:07;;;;;;;33.65;17.65;;;;;;;-0.11;90.36;96066.44;5108388;28;20047;-76
2022/04/03 01:52:34;;;;;;;34.70;17.98;;;;;;;-0.10;90.47;96070.75;5108176;28;20051;-77
2022/04/03 01:55:00;;;;;;;33.03;18.60;;;;;;;-0.15;90.56;96070.72;5108608;28;20043;-76
2022/04/03 01:57:27;;;;;;;34.75;18.63;;;;;;;-0.17;90.46;96072.84;5107592;28;20464;-77
2022/04/03 01:59:55;;;;;;;36.58;18.55;;;;;;;-0.18;90.87;96071.22;5108106;28;20059;-76
2022/04/03 02:02:22;;;;;;;35.85;18.30;;;;;;;-0.22;90.91;96065.56;5107800;28;20434;-76
2022/04/03 02:04:49;;;;;;;36.95;19.33;;;;;;;-0.16;91.10;96069.09;5108119;28;20429;-76
2022/04/03 02:07:15;;;;;;;36.22;18.75;;;;;;;-0.17;90.97;96070.16;5107774;28;20047;-76
2022/04/03 02:09:42;;;;;;;37.85;19.30;;;;;;;-0.11;91.04;96071.81;5107388;28;20047;-76
2022/04/03 02:12:10;;;;;;;35.50;18.52;;;;;;;-0.12;90.96;96070.19;5107089;28;20055;-76
2022/04/03 02:14:37;;;;;;;34.88;18.77;;;;;;;-0.11;90.93;96072.59;5107598;28;20051;-76
2022/04/03 02:17:04;;;;;;;34.33;18.77;;;;;;;-0.08;90.69;96072.09;5108018;28;20055;-77
2022/04/03 02:19:31;;;;;;;38.78;18.60;;;;;;;0.00;90.55;96073.50;5107327;28;20044;-77
2022/04/03 02:21:57;;;;;;;39.38;19.33;;;;;;;-0.02;90.47;96075.63;5108110;28;20045;-77
2022/04/03 02:24:24;;;;;;;31.35;17.88;;;;;;;-0.02;90.42;96076.44;5107162;28;20054;-76
2022/04/03 02:26:51;;;;;;;36.15;18.67;;;;;;;0.00;90.21;96086.91;5108124;28;20088;-76
2022/04/03 02:29:17;;;;;;;37.97;18.88;;;;;;;-0.02;90.07;96084.44;5107136;28;20556;-76
2022/04/03 02:31:44;;;;;;;40.15;19.48;;;;;;;-0.07;90.34;96086.28;5107282;28;20063;-77
2022/04/03 02:34:12;;;;;;;34.00;18.27;;;;;;;-0.08;90.73;96087.34;5107475;28;20051;-77
2022/04/03 02:36:40;;;;;;;37.03;19.25;;;;;;;-0.10;90.56;96086.81;5107167;28;20059;-76
2022/04/03 02:39:07;;;;;;;37.47;18.40;;;;;;;-0.11;90.62;96093.22;5107673;28;20047;-76
2022/04/03 02:41:34;;;;;;;33.78;17.85;;;;;;;-0.15;90.60;96095.63;5106938;28;20067;-77
2022/04/03 02:44:01;;;;;;;37.13;18.08;;;;;;;-0.13;90.52;96098.03;5107485;28;20055;-76
2022/04/03 02:46:27;;;;;;;34.30;18.17;;;;;;;-0.12;90.42;96094.28;5107041;28;20501;-76
2022/04/03 02:48:54;;;;;;;33.30;16.88;;;;;;;-0.19;89.99;96101.72;5107541;28;20051;-77
2022/04/03 02:51:21;;;;;;;36.47;19.10;;;;;;;-0.11;90.29;96098.56;5106370;28;20421;-77
2022/04/03 02:53:48;;;;;;;37.00;17.70;;;;;;;-0.12;90.43;96102.31;5107007;28;20050;-76
2022/04/03 02:56:14;;;;;;;33.28;17.52;;;;;;;-0.14;90.10;96099.91;5107129;28;20490;-76
2022/04/03 02:58:41;;;;;;;37.35;18.45;;;;;;;-0.19;90.33;96107.09;5106867;28;20052;-76
2022/04/03 03:01:09;;;;;;;34.53;17.38;;;;;;;-0.20;90.55;96105.47;5106985;28;20058;-77
2022/04/03 03:03:35;;;;;;;36.22;17.73;;;;;;;-0.20;90.53;96105.47;5107593;28;20052;-77
2022/04/03 03:06:02;;;;;;;35.45;18.15;;;;;;;-0.12;90.49;96105.00;5106923;28;20054;-77
2022/04/03 03:08:30;;;;;;;34.15;17.48;;;;;;;-0.15;90.42;96110.88;5106950;28;20109;-76
2022/04/03 03:10:57;;;;;;;36.20;18.48;;;;;;;-0.18;90.14;96109.50;5107059;28;20861;-76
2022/04/03 03:13:23;;;;;;;36.22;17.58;;;;;;;-0.16;90.19;96109.22;5113031;27;20046;-77
2022/04/03 03:15:50;;;;;;;39.35;17.67;;;;;;;-0.13;90.04;96106.06;5127392;27;20411;-77
2022/04/03 03:18:16;;;;;;;32.70;16.65;;;;;;;-0.13;89.88;96114.09;5127027;27;20047;-76
2022/04/03 03:20:43;;;;;;;34.55;16.85;;;;;;;-0.13;89.66;96112.22;5126990;27;20055;-76
2022/04/03 03:23:09;;;;;;;32.10;15.98;;;;;;;-0.08;89.62;96114.13;5127186;27;20058;-77
2022/04/03 03:25:37;;;;;;;32.33;16.42;;;;;;;-0.07;89.52;96116.53;5126712;27;20073;-76
2022/04/03 03:28:04;;;;;;;32.90;16.75;;;;;;;0.01;89.49;96123.31;5127630;27;20050;-77
2022/04/03 03:30:30;;;;;;;28.80;16.63;;;;;;;-0.02;88.67;96118.44;5127523;27;20452;-77
2022/04/03 03:32:57;;;;;;;27.00;14.48;;;;;;;-0.05;88.35;96124.34;5127607;27;20050;-76
2022/04/03 03:35:23;;;;;;;26.58;15.10;;;;;;;-0.10;88.44;96121.63;5126428;27;20043;-77
2022/04/03 03:37:50;;;;;;;29.80;14.90;;;;;;;-0.10;89.15;96125.09;5127273;27;20051;-77
2022/04/03 03:40:17;;;;;;;28.38;15.05;;;;;;;-0.15;89.05;96124.25;5126394;27;20135;-76
2022/04/03 03:42:45;;;;;;;32.95;15.70;;;;;;;-0.13;89.32;96127.47;5106277;28;20047;-76
2022/04/03 03:45:13;;;;;;;28.48;14.07;;;;;;;-0.11;89.14;96130.69;5106413;28;20048;-76
2022/04/03 03:47:39;;;;;;;31.48;15.65;;;;;;;-0.13;88.65;96124.78;5105992;28;20054;-77
2022/04/03 03:50:06;;;;;;;29.05;15.60;;;;;;;-0.12;88.38;96129.06;5106586;28;20052;-76
2022/04/03 03:52:33;;;;;;;25.13;13.90;;;;;;;-0.07;88.00;96132.59;5105358;28;20075;-76
2022/04/03 03:54:59;;;;;;;27.08;15.55;;;;;;;-0.08;88.33;96135.53;5106673;28;20043;-76
2022/04/03 03:57:26;;;;;;;27.17;14.68;;;;;;;-0.11;88.19;96130.69;5105448;28;20043;-77
2022/04/03 03:59:53;;;;;;;27.95;14.57;;;;;;;-0.15;88.16;96140.31;5106205;28;20063;-76
2022/04/03 04:02:20;;;;;;;29.88;14.35;;;;;;;-0.21;88.59;96136.75;5105448;28;20048;-76
2022/04/03 04:04:46;;;;;;;29.90;16.13;;;;;;;-0.17;88.63;96147.78;5106046;28;20370;-77
2022/04/03 04:07:13;;;;;;;27.85;14.27;;;;;;;-0.12;88.48;96142.47;5106187;28;20052;-77
2022/04/03 04:09:41;;;;;;;31.13;16.25;;;;;;;-0.12;88.46;96134.44;5105891;28;20063;-77
2022/04/03 04:12:09;;;;;;;30.70;14.98;;;;;;;-0.14;88.41;96144.59;5106150;28;20057;-77
2022/04/03 04:14:36;;;;;;;27.15;14.40;;;;;;;-0.18;88.18;96154.19;5105670;28;20052;-77
2022/04/03 04:17:04;;;;;;;25.92;14.05;;;;;;;-0.16;88.28;96155.53;5106130;28;20079;-77
2022/04/03 04:19:30;;;;;;;32.90;15.60;;;;;;;-0.14;88.46;96156.09;5105794;28;20078;-77
2022/04/03 04:21:57;;;;;;;33.22;16.05;;;;;;;-0.16;88.45;96160.09;5106462;28;20048;-76
2022/04/03 04:24:23;;;;;;;23.80;13.55;;;;;;;-0.10;88.12;96154.53;5105807;28;20051;-77
2022/04/03 04:26:50;;;;;;;32.83;15.77;;;;;;;-0.03;88.13;96155.13;5106074;28;20048;-77
2022/04/03 04:29:16;;;;;;;25.58;14.02;;;;;;;0.03;87.83;96164.00;5105427;28;20040;-76
2022/04/03 04:31:43;;;;;;;27.65;14.38;;;;;;;0.12;87.78;96159.00;5105762;28;20410;-77
2022/04/03 04:34:11;;;;;;;24.33;13.50;;;;;;;0.17;87.55;96167.06;5106177;28;20417;-77
2022/04/03 04:36:37;;;;;;;26.02;14.85;;;;;;;0.19;87.17;96163.06;5109683;28;20055;-77
2022/04/03 04:39:04;;;;;;;24.48;13.30;;;;;;;0.09;85.85;96168.31;5110196;28;20055;-76
2022/04/03 04:41:30;;;;;;;26.70;13.25;;;;;;;0.12;85.82;96170.50;5109068;28;20048;-77
2022/04/03 04:43:57;;;;;;;29.15;13.73;;;;;;;0.09;85.67;96168.31;5110200;28;20063;-77
2022/04/03 04:46:23;;;;;;;24.63;12.88;;;;;;;0.14;85.85;96173.72;5109034;28;20541;-76
2022/04/03 04:48:50;;;;;;;28.00;14.27;;;;;;;0.19;85.76;96178.31;5109932;28;20054;-77
2022/04/03 04:51:18;;;;;;;25.75;13.98;;;;;;;0.21;85.56;96182.38;5109007;28;20044;-76
2022/04/03 04:53:44;;;;;;;28.75;14.07;;;;;;;0.24;85.76;96192.53;5109695;28;20056;-77
2022/04/03 04:56:12;;;;;;;31.95;13.02;;;;;;;0.32;85.58;96193.16;5109567;28;20387;-77
2022/04/03 04:58:39;;;;;;;60.90;14.02;;;;;;;0.31;85.63;96186.97;5108997;28;20130;-77
2022/04/03 05:01:05;;;;;;;71.70;18.33;;;;;;;0.24;85.54;96191.75;5109630;28;20056;-76
2022/04/03 05:03:31;;;;;;;76.05;19.33;;;;;;;0.17;85.62;96191.16;5109097;28;20063;-77
2022/04/03 05:05:58;;;;;;;30.80;14.57;;;;;;;0.16;85.70;96193.03;5109811;28;20047;-77
2022/04/03 05:08:26;;;;;;;33.22;15.10;;;;;;;0.05;86.32;96204.69;5108727;28;20134;-77
2022/04/03 05:10:53;;;;;;;60.58;15.30;;;;;;;0.02;86.87;96199.88;5109418;28;20139;-78
2022/04/03 05:13:25;;;;;;;29.98;14.52;;;;;;;-0.01;87.19;96205.72;5128862;27;20401;-77
2022/04/03 05:15:52;;;;;;;50.38;14.30;;;;;;;-0.04;87.33;96208.91;5129925;27;20142;-77
2022/04/03 05:18:19;;;;;;;38.35;14.50;;;;;;;-0.08;87.46;96211.28;5129570;27;20051;-77
2022/04/03 05:20:46;;;;;;;58.38;17.65;;;;;;;-0.03;87.65;96208.66;5129211;27;20061;-77
2022/04/03 05:23:13;;;;;;;59.10;15.18;;;;;;;0.01;87.80;96214.31;5130127;27;20047;-77
2022/04/03 05:25:41;;;;;;;41.30;15.85;;;;;;;0.06;87.41;96211.69;5129105;27;20047;-77
2022/04/03 05:28:08;;;;;;;67.15;17.98;;;;;;;0.04;87.07;96213.78;5129638;27;20043;-76
2022/04/03 05:30:35;;;;;;;32.85;15.65;;;;;;;0.10;87.24;96218.13;5129054;27;20487;-77
2022/04/03 05:33:01;;;;;;;71.72;15.48;;;;;;;0.17;87.01;96224.09;5129890;27;20043;-77
2022/04/03 05:35:28;;;;;;;77.68;18.50;;;;;;;0.20;86.84;96218.22;5129477;27;20378;-77
2022/04/03 05:37:54;;;;;;;71.68;14.75;;;;;;;0.27;86.66;96222.56;5129324;27;20459;-77
2022/04/03 05:40:21;;;;;;;78.82;18.27;;;;;;;0.35;86.47;96219.41;5128282;27;20051;-77
2022/04/03 05:42:49;;;;;;;51.47;15.18;;;;;;;0.34;85.67;96223.16;5110842;27;20058;-77
2022/04/03 05:45:15;;;;;;;22.63;11.90;;;;;;;0.39;85.71;96226.69;5108557;28;20056;-77
2022/04/03 05:47:42;;;;;;;26.95;12.30;;;;;;;0.41;85.40;96231.78;5107108;28;20055;-76
2022/04/03 05:50:09;;;;;;;42.78;12.93;;;;;;;0.47;85.05;96233.41;5108394;28;20044;-77
2022/04/03 05:52:41;;;;;;;135.18;26.50;;;;;;;0.49;84.49;96242.03;5107991;28;20840;-77
2022/04/03 05:55:08;;;;;;;108.60;19.25;;;;;;;0.48;84.11;96240.41;5067396;28;20098;-76
2022/04/03 05:57:35;;;;;;;43.92;11.73;;;;;;;0.56;84.05;96234.56;5067811;28;20125;-77
2022/04/03 06:00:05;;;;;;;24.45;11.95;;;;;;;0.58;83.95;96243.16;5067694;28;20044;-77
2022/04/03 06:02:41;;;;;;;28.33;12.30;;;;;;;0.59;83.66;96246.66;5068094;28;20048;-77
2022/04/03 06:05:09;;;;;;;66.10;13.27;;;;;;;0.47;82.21;96244.13;5067117;28;20665;-77
2022/04/03 06:07:35;;;;;;;22.50;11.23;;;;;;;0.36;82.79;96255.84;5068204;28;20060;-78
2022/04/03 06:10:02;;;;;;;46.10;12.82;;;;;;;0.43;83.13;96259.94;5066531;28;20048;-77
2022/04/03 06:12:28;;;;;;;52.70;15.45;;;;;;;0.43;82.93;96254.56;5068183;28;20045;-77
2022/04/03 06:14:55;;;;;;;20.58;9.80;;;;;;;0.41;82.67;96261.25;5067027;28;20052;-77
2022/04/03 06:17:23;;;;;;;46.72;14.25;;;;;;;0.38;82.71;96262.56;5067547;28;20052;-77
2022/04/03 06:19:50;;;;;;;46.10;10.95;;;;;;;0.46;82.78;96261.28;5067431;28;20155;-77
2022/04/03 06:22:17;;;;;;;56.72;10.77;;;;;;;0.45;82.56;96262.34;5067297;28;20055;-77
2022/04/03 06:24:43;;;;;;;39.55;10.60;;;;;;;0.46;82.72;96264.75;5067433;28;20509;-78
2022/04/03 06:27:13;;;;;;;59.83;11.93;;;;;;;0.50;82.51;96265.88;5066724;28;20418;-78
2022/04/03 06:29:39;;;;;;;36.63;9.88;;;;;;;0.54;82.54;96274.22;5067775;28;20605;-77
2022/04/03 06:32:06;;;;;;;50.22;10.88;;;;;;;0.43;81.94;96269.84;5066258;28;20040;-77
2022/04/03 06:34:34;;;;;;;79.07;17.83;;;;;;;0.39;82.89;96274.09;5068194;28;20495;-78
2022/04/03 06:37:02;;;;;;;57.30;14.57;;;;;;;0.35;83.69;96278.34;5066737;28;20052;-77
2022/04/03 06:39:29;;;;;;;69.70;11.73;;;;;;;0.31;84.44;96279.91;5067353;28;20422;-77
2022/04/03 06:41:55;;;;;;;47.00;11.85;;;;;;;0.25;84.98;96282.53;5066883;28;20060;-77
2022/04/03 06:44:23;;;;;;;78.70;14.38;;;;;;;0.29;85.25;96284.72;5066883;28;20056;-78
2022/04/03 06:46:50;;;;;;;30.83;11.88;;;;;;;0.34;84.90;96287.44;5067028;28;20044;-77
2022/04/03 06:49:16;;;;;;;61.63;12.70;;;;;;;0.37;84.94;96292.31;5066519;28;20745;-77
2022/04/03 06:51:44;;;;;;;72.60;16.88;;;;;;;0.34;84.88;96292.78;5066932;28;20053;-78
2022/04/03 06:54:10;;;;;;;34.35;12.45;;;;;;;0.29;84.92;96290.88;5091260;28;20199;-77
2022/04/03 06:56:37;;;;;;;30.20;13.75;;;;;;;0.34;85.24;96303.50;5107863;28;20051;-77
2022/04/03 06:59:03;;;;;;;32.63;13.10;;;;;;;0.45;85.21;96289.94;5106016;28;20050;-77
2022/04/03 07:01:30;;;;;;;28.65;13.77;;;;;;;0.52;85.18;96297.75;5107571;28;20529;-77
2022/04/03 07:03:56;;;;;;;32.95;14.18;;;;;;;0.58;85.07;96299.44;5106738;28;20390;-77
2022/04/03 07:06:23;;;;;;;71.38;21.00;;;;;;;0.51;84.52;96301.50;5107191;28;20052;-78
2022/04/03 07:08:51;;;;;;;23.17;11.57;;;;;;;0.44;84.16;96304.41;5106669;28;20051;-77
2022/04/03 07:11:17;;;;;;;64.57;13.82;;;;;;;0.38;84.49;96309.97;5105993;28;20043;-77
2022/04/03 07:13:44;;;;;;;60.40;13.00;;;;;;;0.39;85.24;96312.41;5106865;28;20047;-77
2022/04/03 07:16:10;;;;;;;66.28;14.15;;;;;;;0.42;84.96;96311.09;5106030;28;20047;-77
2022/04/03 07:18:37;;;;;;;47.05;11.63;;;;;;;0.44;84.94;96317.00;5107212;28;20043;-77
2022/04/03 07:21:04;;;;;;;78.47;16.70;;;;;;;0.39;84.96;96312.41;5105686;28;20047;-77
2022/04/03 07:23:30;;;;;;;177.93;41.00;;;;;;;0.37;84.66;96319.88;5107280;28;20056;-77
2022/04/03 07:25:58;;;;;;;30.75;11.98;;;;;;;0.38;84.73;96320.69;5106394;28;20549;-78
2022/04/03 07:28:25;;;;;;;76.18;16.15;;;;;;;0.37;84.74;96324.44;5106347;28;20040;-77
2022/04/03 07:30:52;;;;;;;28.20;13.27;;;;;;;0.45;84.65;96321.28;5106228;28;20624;-78
2022/04/03 07:33:20;;;;;;;71.97;14.35;;;;;;;0.42;84.77;96324.50;5106408;28;20067;-77
2022/04/03 07:35:47;;;;;;;72.95;15.35;;;;;;;0.41;84.24;96325.53;5106993;28;20078;-77
2022/04/03 07:38:14;;;;;;;61.92;13.38;;;;;;;0.44;84.37;96330.38;5106101;28;20054;-78
2022/04/03 07:40:41;;;;;;;66.88;15.27;;;;;;;0.44;84.19;96336.56;5106744;28;20105;-77
2022/04/03 07:43:09;;;;;;;93.65;20.08;;;;;;;0.40;83.32;96345.34;5105477;28;20051;-77
2022/04/03 07:45:36;;;;;;;31.10;12.85;;;;;;;0.32;83.94;96329.75;5107100;28;20051;-78
2022/04/03 07:48:02;;;;;;;66.05;18.80;;;;;;;0.38;83.93;96331.41;5105724;28;20044;-77
2022/04/03 07:50:29;;;;;;;61.78;15.05;;;;;;;0.39;84.26;96338.38;5106686;28;20048;-77
2022/04/03 07:52:55;;;;;;;74.00;16.55;;;;;;;0.51;84.29;96344.38;5105845;28;20048;-77
2022/04/03 07:55:22;;;;;;;52.30;12.50;;;;;;;0.56;83.29;96349.78;5106374;28;20048;-77
2022/04/03 07:57:48;;;;;;;128.02;26.42;;;;;;;0.63;83.00;96341.56;5106786;28;20054;-77
2022/04/03 08:00:17;;;;;;;34.20;14.05;;;;;;;0.66;82.88;96354.44;5105783;28;20059;-78
2022/04/03 08:02:43;;;;;;;69.93;14.38;;;;;;;0.64;82.09;96356.56;5106953;28;20048;-78
2022/04/03 08:05:11;;;;;;;31.10;14.35;;;;;;;0.64;82.27;96362.72;5105434;28;20051;-78
2022/04/03 08:07:38;;;;;;;51.92;14.48;;;;;;;0.78;82.42;96358.56;5106693;28;20055;-76
2022/04/03 08:10:08;;;;;;;39.35;15.38;;;;;;;0.89;81.98;96361.31;5106202;28;20073;-78
2022/04/03 08:12:35;;;;;;;83.15;22.25;;;;;;;0.97;81.60;96364.34;5110823;28;20054;-77
2022/04/03 08:15:01;;;;;;;54.28;16.10;;;;;;;1.06;81.70;96364.69;5110256;28;20059;-77
2022/04/03 08:17:29;;;;;;;159.82;25.58;;;;;;;1.17;81.50;96371.72;5100076;27;20070;-77
2022/04/03 08:19:56;;;;;;;84.68;19.80;;;;;;;1.19;81.23;96372.25;5107578;27;20059;-77
2022/04/03 08:22:22;;;;;;;41.53;14.52;;;;;;;1.11;80.95;96374.63;5109604;27;20512;-76
2022/04/03 08:24:50;;;;;;;36.95;13.77;;;;;;;0.94;80.28;96378.28;5110734;27;20449;-78
2022/04/03 08:27:16;;;;;;;46.17;16.08;;;;;;;0.93;80.63;96373.13;5108991;27;20143;-77
2022/04/03 08:29:43;;;;;;;73.07;22.63;;;;;;;0.81;81.28;96378.69;5107792;27;20048;-77
2022/04/03 08:32:10;;;;;;;32.72;14.70;;;;;;;0.76;81.37;96371.41;5108119;27;20086;-78
2022/04/03 08:34:38;;;;;;;32.97;13.68;;;;;;;0.68;81.54;96379.94;5110679;27;20048;-76
2022/04/03 08:37:05;;;;;;;63.35;15.15;;;;;;;0.83;82.45;96383.78;5109304;27;20047;-77
2022/04/03 08:39:31;;;;;;;80.68;15.32;;;;;;;0.99;82.60;96381.00;5110281;27;20055;-77
2022/04/03 08:41:58;;;;;;;27.55;14.43;;;;;;;0.89;81.65;96382.75;5118405;27;20067;-77
2022/04/03 08:44:25;;;;;;;27.85;14.05;;;;;;;0.82;82.56;96384.84;5130030;27;20062;-76
2022/04/03 08:46:53;;;;;;;27.20;14.68;;;;;;;0.88;82.14;96389.19;5130370;27;20047;-77
2022/04/03 08:49:20;;;;;;;27.05;14.27;;;;;;;0.89;80.76;96390.78;5129336;27;20047;-76
2022/04/03 08:51:52;;;;;;;31.55;16.25;;;;;;;0.89;81.86;96396.16;5130515;27;20114;-75
2022/04/03 08:54:21;;;;;;;30.67;15.40;;;;;;;0.87;82.35;96392.94;5128469;27;20054;-77
2022/04/03 08:56:50;;;;;;;29.77;15.15;;;;;;;0.88;81.39;96399.91;5129941;27;20051;-76
2022/04/03 08:59:17;;;;;;;31.48;15.32;;;;;;;0.89;81.31;96390.78;5129287;27;20103;-77
2022/04/03 09:01:43;;;;;;;35.45;16.33;;;;;;;0.96;82.16;96402.13;5130436;27;20055;-76
2022/04/03 09:04:10;;;;;;;28.73;15.10;;;;;;;1.05;81.56;96395.25;5128670;27;20054;-76
2022/04/03 09:06:56;;;;;;;27.92;15.07;;;;;;;1.21;81.51;96399.66;5129985;27;20642;-76
2022/04/03 09:09:23;;;;;;;24.23;13.18;;;;;;;1.08;78.60;96402.75;5129605;27;20539;-78
2022/04/03 09:12:08;;;;;;;29.17;13.70;;;;;;;1.19;79.14;96395.59;5119142;27;20047;-77
2022/04/03 09:14:35;;;;;;;26.20;14.48;;;;;;;1.17;80.26;96403.91;5108850;27;20046;-76
2022/04/03 09:17:02;;;;;;;28.05;14.68;;;;;;;1.25;81.21;96406.13;5107043;27;20047;-77
2022/04/03 09:19:33;;;;;;;28.05;13.48;;;;;;;1.30;81.02;96403.50;5108638;27;20429;-76
2022/04/03 09:22:01;;;;;;;21.95;12.27;;;;;;;1.42;80.99;96415.91;5108430;27;20143;-77
2022/04/03 09:24:28;;;;;;;25.48;12.68;;;;;;;1.45;80.22;96418.06;5108940;27;20055;-76
2022/04/03 09:27:03;;;;;;;23.30;11.82;;;;;;;1.53;80.13;96412.22;5109046;27;20052;-77
2022/04/03 09:29:29;;;;;;;23.90;11.90;;;;;;;1.50;78.72;96418.09;5108519;27;20058;-77
2022/04/03 09:32:01;;;;;;;164.43;37.28;;;;;;;1.55;77.93;96415.44;5109554;27;20544;-77
2022/04/03 09:34:29;;;;;;;145.40;28.40;;;;;;;1.68;78.21;96414.19;5108272;27;20046;-77
2022/04/03 09:36:57;;;;;;;122.18;28.92;;;;;;;1.82;77.74;96418.81;5109542;27;20047;-77
2022/04/03 09:39:27;;;;;;;74.85;17.67;;;;;;;1.87;77.97;96417.22;5107826;27;20048;-76
2022/04/03 09:41:59;;;;;;;75.60;15.68;;;;;;;1.61;76.44;96413.59;5117259;27;20047;-77
2022/04/03 09:44:29;;;;;;;99.57;22.33;;;;;;;1.48;74.86;96425.59;5129082;27;20814;-77
2022/04/03 09:47:15;;;;;;;126.20;23.60;;;;;;;1.47;76.06;96429.34;5128997;27;20050;-77
2022/04/03 09:49:43;;;;;;;117.60;24.98;;;;;;;1.73;77.99;96430.31;5128561;27;20051;-77
2022/04/03 09:52:10;;;;;;;117.07;25.67;;;;;;;1.95;77.92;96430.16;5128158;27;20107;-77
2022/04/03 09:54:39;;;;;;;79.47;15.85;;;;;;;2.03;76.95;96426.97;5129518;27;20066;-78
2022/04/03 09:57:26;;;;;;;27.38;10.43;;;;;;;2.24;75.49;96417.91;5128376;27;20506;-78
2022/04/03 09:59:55;;;;;;;80.13;14.35;;;;;;;2.32;75.09;96425.50;5121905;27;20050;-76
2022/04/03 10:02:22;;;;;;;35.65;11.52;;;;;;;2.46;75.97;96423.13;5128278;27;20055;-76
2022/04/03 10:04:48;;;;;;;94.88;18.52;;;;;;;2.45;74.99;96428.75;5128865;27;20051;-76
2022/04/03 10:07:16;;;;;;;46.60;11.50;;;;;;;2.37;73.71;96431.97;5128611;27;20167;-76
2022/04/03 10:09:47;;;;;;;43.13;11.45;;;;;;;2.13;74.01;96432.38;5128438;27;20069;-76
2022/04/03 10:12:18;;;;;;;40.22;11.13;;;;;;;1.93;74.46;96427.75;5115808;27;20064;-76
2022/04/03 10:14:46;;;;;;;74.88;13.38;;;;;;;1.89;73.98;96431.22;5107327;28;20067;-77
2022/04/03 10:17:13;;;;;;;162.88;34.97;;;;;;;1.96;75.49;96426.41;5107492;28;20051;-76
2022/04/03 10:19:41;;;;;;;58.60;11.98;;;;;;;2.06;76.16;96421.91;5107867;28;20535;-75
2022/04/03 10:22:11;;;;;;;166.13;38.10;;;;;;;2.19;76.75;96423.28;5107566;28;20054;-77
2022/04/03 10:24:40;;;;;;;115.18;28.08;;;;;;;2.13;76.03;96418.97;5108493;28;20051;-75
2022/04/03 10:27:14;;;;;;;171.35;45.25;;;;;;;2.09;74.79;96421.38;5107225;28;20051;-75
2022/04/03 10:29:43;;;;;;;141.95;34.33;;;;;;;2.15;74.58;96419.53;5108384;28;20097;-76
2022/04/03 10:32:10;;;;;;;114.43;22.60;;;;;;;2.21;72.95;96423.84;5106183;28;20055;-75
2022/04/03 10:34:47;;;;;;;60.72;11.02;;;;;;;2.13;72.40;96418.16;5108683;28;20048;-76
2022/04/03 10:37:24;;;;;;;35.58;11.18;;;;;;;1.96;71.43;96426.41;5107023;28;20055;-76
2022/04/03 10:39:53;;;;;;;41.10;9.90;;;;;;;1.85;71.75;96419.38;5107745;28;20043;-76
2022/04/03 10:42:26;;;;;;;19.17;8.68;;;;;;;2.03;73.26;96413.53;5107395;28;20043;-76
2022/04/03 10:45:18;;;;;;;23.48;11.18;;;;;;;2.46;75.75;96416.94;5107361;28;20100;-76
2022/04/03 10:47:47;;;;;;;85.85;19.45;;;;;;;2.67;72.11;96415.91;5107880;28;20039;-75
2022/04/03 10:50:14;;;;;;;33.53;11.90;;;;;;;2.71;70.92;96408.91;5106528;28;20055;-75
2022/04/03 10:52:56;;;;;;;55.83;10.98;;;;;;;2.50;70.06;96413.44;5107668;28;20071;-75
2022/04/03 10:55:26;;;;;;;18.23;9.50;;;;;;;2.45;71.35;96413.41;5112045;27;20047;-76
2022/04/03 10:57:55;;;;;;;257.30;65.85;;;;;;;2.31;71.58;96413.13;5106975;28;20058;-77
2022/04/03 11:00:46;;;;;;;19.63;8.93;;;;;;;2.10;72.17;96419.50;5106886;28;20043;-76
2022/04/03 11:03:33;;;;;;;152.93;41.42;;;;;;;1.95;69.57;96414.06;5105924;28;20126;-76
2022/04/03 11:06:22;;;;;;;96.70;20.23;;;;;;;1.86;70.93;96415.63;5106596;28;20081;-76
2022/04/03 11:09:01;;;;;;;35.72;8.77;;;;;;;1.78;70.01;96420.41;5107083;28;20580;-75
2022/04/03 11:11:42;;;;;;;35.05;11.13;;;;;;;1.71;69.66;96414.44;5110840;27;20850;-76
2022/04/03 11:14:11;;;;;;;23.40;9.38;;;;;;;1.67;69.22;96417.91;5122595;27;20125;-76
2022/04/03 11:16:54;;;;;;;35.75;12.77;;;;;;;1.78;71.75;96414.25;5105824;28;20404;-77
2022/04/03 11:19:34;;;;;;;14.75;9.35;;;;;;;1.85;72.49;96408.63;5106218;28;20484;-77
2022/04/03 11:22:04;;;;;;;19.63;9.77;;;;;;;2.04;71.68;96417.88;5105763;28;20745;-75
2022/04/03 11:24:33;;;;;;;18.10;9.50;;;;;;;2.06;72.42;96413.84;5105561;28;20046;-76
2022/04/03 11:27:00;;;;;;;22.38;9.82;;;;;;;2.26;71.31;96410.41;5106157;28;20410;-76